Barisal, Bangladesh
Current Conditions -  °F | °C
As of 2:20 AM on Sunday 26 Oct 2014 (Local Time) from VGHS Reporting Station
Haze Haze  
Wind Chill: 77°   Ceiling: 10000
Heat Index: 79°   Visibility: 2.5mi
Dew Point: 70°   Wind: 0mph
Humidity: 78%   Direction: NA
Pressure: 29.83"   Gusts: NA
Location:  22.7°N, 90.37°E
Report Text: VGHS 252020Z 00000KT 4000 HZ SCT012 BKN100 25/21 Q1010 NOSIG
Loading
Personal Weather Stations






























Interactive Weather Map
Tropical Storm Tracking
New forecast layout! Learn more

10-Day Weather Forecast

Advertisements
Track Severe Weather on mobile